Estación Meteorológica Peña el Pijo (Robertgarden) [ 12/17/17 01:39:03 CET ]

Fecha Hora Presion(HPa) Temp (°C) Humedad % Rocio (°C) Viento ( m/s) Direccion Lluvia 1Hora(mm) Lluvia 24H(mm) LLuvia Total(mm)
2017-Dec-16 01:01:58 1003.000 5.0 87 3.0       4.66 21.23
2017-Dec-16 02:01:42 1003.400 3.9 86 1.8       4.66 21.23
2017-Dec-16 03:03:14 1003.600 2.4 84 -0.1       4.66 21.23
2017-Dec-16 04:01:53 1004.000 0.4 84 -2.0       4.66 21.23
2017-Dec-16 05:01:52 1004.100 -0.5 86 -2.5       4.66 21.23
2017-Dec-16 06:01:37 1004.800 -1.1 86 -3.1       4.66 21.23
2017-Dec-16 07:01:50 1005.500 -1.1 87 -3.0       4.66 21.23
2017-Dec-16 08:02:04 1006.200 -1.7 87 -3.6       4.66 21.23
2017-Dec-16 09:01:49 1006.700 -2.4 88 -4.1       4.66 21.23
2017-Dec-16 10:01:57 1007.300 1.8 89 0.1       4.66 21.23
2017-Dec-16 11:01:50 1008.000 5.9 84 3.4       4.66 21.23
2017-Dec-16 12:01:51 1007.900 7.2 64 0.8 1.0 NNW   4.66 21.23
2017-Dec-16 13:01:53 1007.500 7.6 55 -0.9       4.66 21.23
2017-Dec-16 14:01:42 1007.300 9.1 47 -1.7       4.66 21.23
2017-Dec-16 15:01:49 1007.200 9.1 47 -1.7       4.66 21.23
2017-Dec-16 16:01:53 1007.600 8.0 48 -2.4       4.66 21.23
2017-Dec-16 17:01:51 1008.100 6.4 50 -3.2       4.66 21.23
2017-Dec-16 18:01:43 1008.700 4.4 56 -3.7       4.14 21.23
2017-Dec-16 19:01:52 1009.700 2.2 65 -3.7       2.59 21.23
2017-Dec-16 20:01:48 1010.500 0.3 71 -4.3       1.55 21.23
2017-Dec-16 21:01:50 1011.200 -0.2 75 -4.1         21.23
2017-Dec-16 22:01:41 1011.800 -0.9 78 -4.3         21.23
2017-Dec-16 23:01:38 1012.000 -1.2 79 -4.4         21.23

Temperatura Máxima:    Temperatura Mínima:-2°
Presión Máxima:1012.000 Hpa    Presión Mínima:1003.000 Hpa


Volver